sensor_id;sensor_type;location;lat;lon;timestamp;temperature;humidity
75683;HTU21D;64295;44.772;39.872;2024-03-07T00:00:09;7.27;59.44
75683;HTU21D;64295;44.772;39.872;2024-03-07T00:02:46;7.27;59.39
75683;HTU21D;64295;44.772;39.872;2024-03-07T00:05:19;7.27;59.35
75683;HTU21D;64295;44.772;39.872;2024-03-07T00:07:45;7.18;59.38
75683;HTU21D;64295;44.772;39.872;2024-03-07T00:10:12;7.11;59.54
75683;HTU21D;64295;44.772;39.872;2024-03-07T00:12:39;7.02;59.60
75683;HTU21D;64295;44.772;39.872;2024-03-07T00:15:10;6.99;59.64
75683;HTU21D;64295;44.772;39.872;2024-03-07T00:17:37;6.95;59.65
75683;HTU21D;64295;44.772;39.872;2024-03-07T00:20:04;6.90;59.67
75683;HTU21D;64295;44.772;39.872;2024-03-07T00:22:36;6.95;59.65
75683;HTU21D;64295;44.772;39.872;2024-03-07T00:25:02;6.95;59.52
75683;HTU21D;64295;44.772;39.872;2024-03-07T00:27:31;6.95;59.51
75683;HTU21D;64295;44.772;39.872;2024-03-07T00:29:58;6.91;59.53
75683;HTU21D;64295;44.772;39.872;2024-03-07T00:32:25;6.89;59.59
75683;HTU21D;64295;44.772;39.872;2024-03-07T00:34:55;6.89;59.56
75683;HTU21D;64295;44.772;39.872;2024-03-07T00:37:24;6.90;59.55
75683;HTU21D;64295;44.772;39.872;2024-03-07T00:39:50;6.88;59.50
75683;HTU21D;64295;44.772;39.872;2024-03-07T00:42:16;6.89;59.53
75683;HTU21D;64295;44.772;39.872;2024-03-07T00:44:43;6.95;59.44
75683;HTU21D;64295;44.772;39.872;2024-03-07T00:47:08;6.97;59.39
75683;HTU21D;64295;44.772;39.872;2024-03-07T00:49:34;6.98;59.36
75683;HTU21D;64295;44.772;39.872;2024-03-07T00:52:00;6.99;59.35
75683;HTU21D;64295;44.772;39.872;2024-03-07T00:54:26;6.96;59.39
75683;HTU21D;64295;44.772;39.872;2024-03-07T00:56:52;6.88;59.49
75683;HTU21D;64295;44.772;39.872;2024-03-07T00:59:19;6.86;59.57
75683;HTU21D;64295;44.772;39.872;2024-03-07T01:01:45;6.87;59.56
75683;HTU21D;64295;44.772;39.872;2024-03-07T01:04:11;6.89;59.52
75683;HTU21D;64295;44.772;39.872;2024-03-07T01:06:37;6.88;59.48
75683;HTU21D;64295;44.772;39.872;2024-03-07T01:09:04;6.87;59.52
75683;HTU21D;64295;44.772;39.872;2024-03-07T01:11:30;6.86;59.55
75683;HTU21D;64295;44.772;39.872;2024-03-07T01:13:56;6.86;59.50
75683;HTU21D;64295;44.772;39.872;2024-03-07T01:16:22;6.85;59.56
75683;HTU21D;64295;44.772;39.872;2024-03-07T01:18:48;6.86;59.55
75683;HTU21D;64295;44.772;39.872;2024-03-07T01:21:15;6.85;59.55
75683;HTU21D;64295;44.772;39.872;2024-03-07T01:23:41;6.84;59.58
75683;HTU21D;64295;44.772;39.872;2024-03-07T01:26:07;6.86;59.57
75683;HTU21D;64295;44.772;39.872;2024-03-07T01:28:34;6.90;59.52
75683;HTU21D;64295;44.772;39.872;2024-03-07T01:31:25;6.97;59.44
75683;HTU21D;64295;44.772;39.872;2024-03-07T01:33:52;6.98;59.33
75683;HTU21D;64295;44.772;39.872;2024-03-07T01:36:19;7.01;59.33
75683;HTU21D;64295;44.772;39.872;2024-03-07T01:38:46;7.01;59.35
75683;HTU21D;64295;44.772;39.872;2024-03-07T01:41:12;7.03;59.35
75683;HTU21D;64295;44.772;39.872;2024-03-07T01:43:40;7.00;59.40
75683;HTU21D;64295;44.772;39.872;2024-03-07T01:46:06;6.97;59.47
75683;HTU21D;64295;44.772;39.872;2024-03-07T01:48:32;6.97;59.48
75683;HTU21D;64295;44.772;39.872;2024-03-07T01:50:59;6.95;59.54
75683;HTU21D;64295;44.772;39.872;2024-03-07T01:53:29;6.93;59.57
75683;HTU21D;64295;44.772;39.872;2024-03-07T01:55:56;6.93;59.60
75683;HTU21D;64295;44.772;39.872;2024-03-07T01:58:24;6.94;59.56
75683;HTU21D;64295;44.772;39.872;2024-03-07T02:00:50;6.93;59.54
75683;HTU21D;64295;44.772;39.872;2024-03-07T02:03:16;6.91;59.63
75683;HTU21D;64295;44.772;39.872;2024-03-07T02:05:43;6.88;59.68
75683;HTU21D;64295;44.772;39.872;2024-03-07T02:08:09;6.88;59.68
75683;HTU21D;64295;44.772;39.872;2024-03-07T02:10:35;6.82;59.70
75683;HTU21D;64295;44.772;39.872;2024-03-07T02:13:01;6.79;59.83
75683;HTU21D;64295;44.772;39.872;2024-03-07T02:15:28;6.72;59.93
75683;HTU21D;64295;44.772;39.872;2024-03-07T02:17:54;6.69;59.98
75683;HTU21D;64295;44.772;39.872;2024-03-07T02:20:20;6.83;59.77
75683;HTU21D;64295;44.772;39.872;2024-03-07T02:22:46;6.99;59.48
75683;HTU21D;64295;44.772;39.872;2024-03-07T02:25:12;7.00;59.43
75683;HTU21D;64295;44.772;39.872;2024-03-07T02:27:38;6.99;59.45
75683;HTU21D;64295;44.772;39.872;2024-03-07T02:30:05;6.98;59.52
75683;HTU21D;64295;44.772;39.872;2024-03-07T02:32:34;7.11;59.64
75683;HTU21D;64295;44.772;39.872;2024-03-07T02:35:06;7.37;59.03
75683;HTU21D;64295;44.772;39.872;2024-03-07T02:37:32;7.33;59.09
75683;HTU21D;64295;44.772;39.872;2024-03-07T02:39:58;7.29;59.25
75683;HTU21D;64295;44.772;39.872;2024-03-07T02:42:24;7.25;59.42
75683;HTU21D;64295;44.772;39.872;2024-03-07T02:44:50;7.24;59.44
75683;HTU21D;64295;44.772;39.872;2024-03-07T02:47:18;7.25;59.54
75683;HTU21D;64295;44.772;39.872;2024-03-07T02:49:44;7.31;59.39
75683;HTU21D;64295;44.772;39.872;2024-03-07T02:52:10;7.62;58.95
75683;HTU21D;64295;44.772;39.872;2024-03-07T02:54:36;7.49;59.12
75683;HTU21D;64295;44.772;39.872;2024-03-07T02:57:02;7.33;59.46
75683;HTU21D;64295;44.772;39.872;2024-03-07T02:59:28;7.22;59.69
75683;HTU21D;64295;44.772;39.872;2024-03-07T03:02:11;7.07;59.89
75683;HTU21D;64295;44.772;39.872;2024-03-07T03:04:37;6.95;60.10
75683;HTU21D;64295;44.772;39.872;2024-03-07T03:07:04;6.82;60.26
75683;HTU21D;64295;44.772;39.872;2024-03-07T03:09:29;6.68;60.38
75683;HTU21D;64295;44.772;39.872;2024-03-07T03:11:55;6.48;60.64
75683;HTU21D;64295;44.772;39.872;2024-03-07T03:14:21;6.30;60.78
75683;HTU21D;64295;44.772;39.872;2024-03-07T03:16:47;6.14;61.00
75683;HTU21D;64295;44.772;39.872;2024-03-07T03:19:13;6.01;61.04
75683;HTU21D;64295;44.772;39.872;2024-03-07T03:21:40;5.94;61.05
75683;HTU21D;64295;44.772;39.872;2024-03-07T03:24:06;5.84;61.09
75683;HTU21D;64295;44.772;39.872;2024-03-07T03:26:33;5.80;61.10
75683;HTU21D;64295;44.772;39.872;2024-03-07T03:28:58;5.77;61.01
75683;HTU21D;64295;44.772;39.872;2024-03-07T03:31:27;5.75;60.93
75683;HTU21D;64295;44.772;39.872;2024-03-07T03:33:53;5.70;60.87
75683;HTU21D;64295;44.772;39.872;2024-03-07T03:36:19;5.63;60.87
75683;HTU21D;64295;44.772;39.872;2024-03-07T03:38:46;5.59;60.91
75683;HTU21D;64295;44.772;39.872;2024-03-07T03:41:17;5.64;60.76
75683;HTU21D;64295;44.772;39.872;2024-03-07T03:43:44;5.59;60.76
75683;HTU21D;64295;44.772;39.872;2024-03-07T03:46:10;5.59;60.72
75683;HTU21D;64295;44.772;39.872;2024-03-07T03:48:38;5.52;60.72
75683;HTU21D;64295;44.772;39.872;2024-03-07T03:51:09;5.47;60.71
75683;HTU21D;64295;44.772;39.872;2024-03-07T03:53:36;5.41;60.80
75683;HTU21D;64295;44.772;39.872;2024-03-07T03:56:03;5.39;60.71
75683;HTU21D;64295;44.772;39.872;2024-03-07T03:58:31;5.31;60.73
75683;HTU21D;64295;44.772;39.872;2024-03-07T04:00:57;5.26;60.84
75683;HTU21D;64295;44.772;39.872;2024-03-07T04:03:26;5.26;60.77
75683;HTU21D;64295;44.772;39.872;2024-03-07T04:05:52;5.28;60.73
75683;HTU21D;64295;44.772;39.872;2024-03-07T04:08:18;5.27;60.66
75683;HTU21D;64295;44.772;39.872;2024-03-07T04:10:45;5.24;60.67
75683;HTU21D;64295;44.772;39.872;2024-03-07T04:13:11;5.25;60.60
75683;HTU21D;64295;44.772;39.872;2024-03-07T04:15:38;5.25;60.58
75683;HTU21D;64295;44.772;39.872;2024-03-07T04:18:04;5.22;60.55
75683;HTU21D;64295;44.772;39.872;2024-03-07T04:20:30;5.16;60.66
75683;HTU21D;64295;44.772;39.872;2024-03-07T04:22:56;5.16;60.67
75683;HTU21D;64295;44.772;39.872;2024-03-07T04:25:22;5.15;60.62
75683;HTU21D;64295;44.772;39.872;2024-03-07T04:27:48;5.10;60.67
75683;HTU21D;64295;44.772;39.872;2024-03-07T04:30:15;5.07;60.69
75683;HTU21D;64295;44.772;39.872;2024-03-07T04:32:42;5.10;60.58
75683;HTU21D;64295;44.772;39.872;2024-03-07T04:35:08;5.06;60.60
75683;HTU21D;64295;44.772;39.872;2024-03-07T04:37:39;5.09;60.57
75683;HTU21D;64295;44.772;39.872;2024-03-07T04:40:07;5.13;60.44
75683;HTU21D;64295;44.772;39.872;2024-03-07T04:42:43;5.09;60.50
75683;HTU21D;64295;44.772;39.872;2024-03-07T04:45:10;5.13;60.51
75683;HTU21D;64295;44.772;39.872;2024-03-07T04:47:42;5.18;60.37
75683;HTU21D;64295;44.772;39.872;2024-03-07T04:50:11;5.19;60.28
75683;HTU21D;64295;44.772;39.872;2024-03-07T04:52:38;5.17;60.34
75683;HTU21D;64295;44.772;39.872;2024-03-07T04:55:10;5.18;60.38
75683;HTU21D;64295;44.772;39.872;2024-03-07T04:57:37;5.18;60.33
75683;HTU21D;64295;44.772;39.872;2024-03-07T05:00:09;5.18;60.36
75683;HTU21D;64295;44.772;39.872;2024-03-07T05:02:46;5.22;60.28
75683;HTU21D;64295;44.772;39.872;2024-03-07T05:05:12;5.24;60.27
75683;HTU21D;64295;44.772;39.872;2024-03-07T05:07:38;5.27;60.18
75683;HTU21D;64295;44.772;39.872;2024-03-07T05:10:06;5.28;60.17
75683;HTU21D;64295;44.772;39.872;2024-03-07T05:12:33;5.31;60.16
75683;HTU21D;64295;44.772;39.872;2024-03-07T05:14:59;5.34;60.15
75683;HTU21D;64295;44.772;39.872;2024-03-07T05:17:25;5.37;60.08
75683;HTU21D;64295;44.772;39.872;2024-03-07T05:19:51;5.42;60.06
75683;HTU21D;64295;44.772;39.872;2024-03-07T05:22:17;5.46;59.99
75683;HTU21D;64295;44.772;39.872;2024-03-07T05:24:45;5.49;59.99
75683;HTU21D;64295;44.772;39.872;2024-03-07T05:27:11;5.51;59.94
75683;HTU21D;64295;44.772;39.872;2024-03-07T05:29:38;5.49;60.00
75683;HTU21D;64295;44.772;39.872;2024-03-07T05:32:21;5.52;60.00
75683;HTU21D;64295;44.772;39.872;2024-03-07T05:34:48;5.51;59.98
75683;HTU21D;64295;44.772;39.872;2024-03-07T05:37:14;5.54;60.16
75683;HTU21D;64295;44.772;39.872;2024-03-07T05:39:40;5.80;59.69
75683;HTU21D;64295;44.772;39.872;2024-03-07T05:42:06;5.87;59.55
75683;HTU21D;64295;44.772;39.872;2024-03-07T05:44:33;5.89;59.53
75683;HTU21D;64295;44.772;39.872;2024-03-07T05:47:02;5.86;59.70
75683;HTU21D;64295;44.772;39.872;2024-03-07T05:49:27;5.86;59.73
75683;HTU21D;64295;44.772;39.872;2024-03-07T05:51:56;5.92;59.70
75683;HTU21D;64295;44.772;39.872;2024-03-07T05:54:23;5.97;59.64
75683;HTU21D;64295;44.772;39.872;2024-03-07T05:56:50;5.98;59.67
75683;HTU21D;64295;44.772;39.872;2024-03-07T05:59:16;6.02;59.71
75683;HTU21D;64295;44.772;39.872;2024-03-07T06:01:42;6.13;59.48
75683;HTU21D;64295;44.772;39.872;2024-03-07T06:04:09;6.16;59.42
75683;HTU21D;64295;44.772;39.872;2024-03-07T06:06:36;6.22;59.49
75683;HTU21D;64295;44.772;39.872;2024-03-07T06:09:04;6.28;59.41
75683;HTU21D;64295;44.772;39.872;2024-03-07T06:11:37;6.26;59.44
75683;HTU21D;64295;44.772;39.872;2024-03-07T06:14:04;6.22;59.53
75683;HTU21D;64295;44.772;39.872;2024-03-07T06:16:32;6.17;59.68
75683;HTU21D;64295;44.772;39.872;2024-03-07T06:19:02;6.26;59.61
75683;HTU21D;64295;44.772;39.872;2024-03-07T06:21:29;6.23;59.61
75683;HTU21D;64295;44.772;39.872;2024-03-07T06:23:58;6.16;59.74
75683;HTU21D;64295;44.772;39.872;2024-03-07T06:26:34;6.11;59.87
75683;HTU21D;64295;44.772;39.872;2024-03-07T06:29:15;6.06;59.89
75683;HTU21D;64295;44.772;39.872;2024-03-07T06:31:42;5.99;60.04
75683;HTU21D;64295;44.772;39.872;2024-03-07T06:34:08;6.06;59.96
75683;HTU21D;64295;44.772;39.872;2024-03-07T06:36:35;6.17;59.77
75683;HTU21D;64295;44.772;39.872;2024-03-07T06:39:01;6.19;59.74
75683;HTU21D;64295;44.772;39.872;2024-03-07T06:41:28;6.24;59.72
75683;HTU21D;64295;44.772;39.872;2024-03-07T06:43:55;6.29;59.68
75683;HTU21D;64295;44.772;39.872;2024-03-07T06:46:21;6.30;59.65
75683;HTU21D;64295;44.772;39.872;2024-03-07T06:48:47;6.38;59.61
75683;HTU21D;64295;44.772;39.872;2024-03-07T06:51:13;6.46;59.51
75683;HTU21D;64295;44.772;39.872;2024-03-07T06:53:40;6.52;59.48
75683;HTU21D;64295;44.772;39.872;2024-03-07T06:56:06;6.56;59.41
75683;HTU21D;64295;44.772;39.872;2024-03-07T06:58:32;6.59;59.46
75683;HTU21D;64295;44.772;39.872;2024-03-07T07:00:58;6.67;59.35
75683;HTU21D;64295;44.772;39.872;2024-03-07T07:03:26;6.67;59.40
75683;HTU21D;64295;44.772;39.872;2024-03-07T07:05:54;6.71;59.43
75683;HTU21D;64295;44.772;39.872;2024-03-07T07:08:20;6.71;59.42
75683;HTU21D;64295;44.772;39.872;2024-03-07T07:10:47;6.72;59.47
75683;HTU21D;64295;44.772;39.872;2024-03-07T07:13:13;6.73;59.48
75683;HTU21D;64295;44.772;39.872;2024-03-07T07:15:39;6.71;59.54
75683;HTU21D;64295;44.772;39.872;2024-03-07T07:18:06;6.68;59.62
75683;HTU21D;64295;44.772;39.872;2024-03-07T07:20:33;6.61;59.80
75683;HTU21D;64295;44.772;39.872;2024-03-07T07:23:02;6.57;59.90
75683;HTU21D;64295;44.772;39.872;2024-03-07T07:25:29;6.59;59.80
75683;HTU21D;64295;44.772;39.872;2024-03-07T07:27:55;6.58;59.76
75683;HTU21D;64295;44.772;39.872;2024-03-07T07:30:23;6.56;59.86
75683;HTU21D;64295;44.772;39.872;2024-03-07T07:32:50;6.61;59.84
75683;HTU21D;64295;44.772;39.872;2024-03-07T07:35:17;6.67;59.77
75683;HTU21D;64295;44.772;39.872;2024-03-07T07:37:48;6.75;59.65
75683;HTU21D;64295;44.772;39.872;2024-03-07T07:40:16;6.79;59.59
75683;HTU21D;64295;44.772;39.872;2024-03-07T07:42:51;6.75;59.66
75683;HTU21D;64295;44.772;39.872;2024-03-07T07:45:19;6.76;59.69
75683;HTU21D;64295;44.772;39.872;2024-03-07T07:47:51;6.79;59.68
75683;HTU21D;64295;44.772;39.872;2024-03-07T07:50:20;6.78;59.70
75683;HTU21D;64295;44.772;39.872;2024-03-07T07:52:47;6.76;59.73
75683;HTU21D;64295;44.772;39.872;2024-03-07T07:55:17;6.71;59.78
75683;HTU21D;64295;44.772;39.872;2024-03-07T07:57:44;6.63;59.91
75683;HTU21D;64295;44.772;39.872;2024-03-07T08:00:15;6.57;60.07
75683;HTU21D;64295;44.772;39.872;2024-03-07T08:02:54;6.60;59.96
75683;HTU21D;64295;44.772;39.872;2024-03-07T08:05:21;6.61;59.93
75683;HTU21D;64295;44.772;39.872;2024-03-07T08:07:50;6.54;60.00
75683;HTU21D;64295;44.772;39.872;2024-03-07T08:10:18;6.52;60.14
75683;HTU21D;64295;44.772;39.872;2024-03-07T08:12:44;6.53;60.03
75683;HTU21D;64295;44.772;39.872;2024-03-07T08:15:14;6.58;59.97
75683;HTU21D;64295;44.772;39.872;2024-03-07T08:17:42;6.64;59.89
75683;HTU21D;64295;44.772;39.872;2024-03-07T08:20:13;6.61;59.86
75683;HTU21D;64295;44.772;39.872;2024-03-07T08:22:42;6.61;59.91
75683;HTU21D;64295;44.772;39.872;2024-03-07T08:25:10;6.63;59.90
75683;HTU21D;64295;44.772;39.872;2024-03-07T08:27:37;6.59;59.89
75683;HTU21D;64295;44.772;39.872;2024-03-07T08:30:07;6.55;60.01
75683;HTU21D;64295;44.772;39.872;2024-03-07T08:32:34;6.53;59.98
75683;HTU21D;64295;44.772;39.872;2024-03-07T08:35:06;6.51;60.03
75683;HTU21D;64295;44.772;39.872;2024-03-07T08:37:51;6.54;59.99
75683;HTU21D;64295;44.772;39.872;2024-03-07T08:40:28;6.58;59.92
75683;HTU21D;64295;44.772;39.872;2024-03-07T08:42:58;6.63;59.78
75683;HTU21D;64295;44.772;39.872;2024-03-07T08:45:25;6.63;59.74
75683;HTU21D;64295;44.772;39.872;2024-03-07T08:47:53;6.65;59.78
75683;HTU21D;64295;44.772;39.872;2024-03-07T08:50:23;6.74;59.69
75683;HTU21D;64295;44.772;39.872;2024-03-07T08:52:50;6.83;59.51
75683;HTU21D;64295;44.772;39.872;2024-03-07T08:55:19;6.91;59.40
75683;HTU21D;64295;44.772;39.872;2024-03-07T08:57:46;6.89;59.43
75683;HTU21D;64295;44.772;39.872;2024-03-07T09:00:14;6.96;59.41
75683;HTU21D;64295;44.772;39.872;2024-03-07T09:02:50;6.98;59.40
75683;HTU21D;64295;44.772;39.872;2024-03-07T09:05:18;7.04;59.38
75683;HTU21D;64295;44.772;39.872;2024-03-07T09:07:44;7.25;59.40
75683;HTU21D;64295;44.772;39.872;2024-03-07T09:10:12;7.35;58.96
75683;HTU21D;64295;44.772;39.872;2024-03-07T09:12:39;7.28;59.19
75683;HTU21D;64295;44.772;39.872;2024-03-07T09:15:05;7.30;59.25
75683;HTU21D;64295;44.772;39.872;2024-03-07T09:17:31;7.31;59.24
75683;HTU21D;64295;44.772;39.872;2024-03-07T09:19:57;7.28;59.30
75683;HTU21D;64295;44.772;39.872;2024-03-07T09:22:23;7.24;59.45
75683;HTU21D;64295;44.772;39.872;2024-03-07T09:24:49;7.23;59.45
75683;HTU21D;64295;44.772;39.872;2024-03-07T09:27:15;7.19;59.58
75683;HTU21D;64295;44.772;39.872;2024-03-07T09:29:41;7.18;59.60
75683;HTU21D;64295;44.772;39.872;2024-03-07T09:32:07;7.17;59.57
75683;HTU21D;64295;44.772;39.872;2024-03-07T09:34:35;7.19;59.62
75683;HTU21D;64295;44.772;39.872;2024-03-07T09:37:02;7.19;59.57
75683;HTU21D;64295;44.772;39.872;2024-03-07T09:39:28;7.16;59.62
75683;HTU21D;64295;44.772;39.872;2024-03-07T09:41:57;7.32;59.76
75683;HTU21D;64295;44.772;39.872;2024-03-07T09:44:24;7.92;59.44
75683;HTU21D;64295;44.772;39.872;2024-03-07T09:46:55;8.97;57.86
75683;HTU21D;64295;44.772;39.872;2024-03-07T09:49:24;9.08;57.30
75683;HTU21D;64295;44.772;39.872;2024-03-07T09:51:51;8.82;57.97
75683;HTU21D;64295;44.772;39.872;2024-03-07T09:54:25;8.81;58.35
75683;HTU21D;64295;44.772;39.872;2024-03-07T09:56:56;9.06;58.68
75683;HTU21D;64295;44.772;39.872;2024-03-07T09:59:25;9.80;57.29
75683;HTU21D;64295;44.772;39.872;2024-03-07T10:01:57;9.53;57.63
75683;HTU21D;64295;44.772;39.872;2024-03-07T10:04:29;9.16;58.51
75683;HTU21D;64295;44.772;39.872;2024-03-07T10:06:57;8.90;59.02
75683;HTU21D;64295;44.772;39.872;2024-03-07T10:09:24;8.75;59.28
75683;HTU21D;64295;44.772;39.872;2024-03-07T10:12:00;8.59;59.52
75683;HTU21D;64295;44.772;39.872;2024-03-07T10:14:32;8.46;59.64
75683;HTU21D;64295;44.772;39.872;2024-03-07T10:16:58;8.33;59.78
75683;HTU21D;64295;44.772;39.872;2024-03-07T10:19:24;8.24;59.88
75683;HTU21D;64295;44.772;39.872;2024-03-07T10:21:50;8.15;59.93
75683;HTU21D;64295;44.772;39.872;2024-03-07T10:24:17;8.09;59.89
75683;HTU21D;64295;44.772;39.872;2024-03-07T10:26:49;8.05;59.95
75683;HTU21D;64295;44.772;39.872;2024-03-07T10:29:17;8.12;59.89
75683;HTU21D;64295;44.772;39.872;2024-03-07T10:31:44;8.29;59.48
75683;HTU21D;64295;44.772;39.872;2024-03-07T10:34:11;8.24;59.41
75683;HTU21D;64295;44.772;39.872;2024-03-07T10:36:37;8.17;59.53
75683;HTU21D;64295;44.772;39.872;2024-03-07T10:39:05;8.13;59.62
75683;HTU21D;64295;44.772;39.872;2024-03-07T10:41:45;8.05;59.60
75683;HTU21D;64295;44.772;39.872;2024-03-07T10:44:19;7.98;59.66
75683;HTU21D;64295;44.772;39.872;2024-03-07T10:46:52;7.92;59.75
75683;HTU21D;64295;44.772;39.872;2024-03-07T10:49:19;7.91;59.65
75683;HTU21D;64295;44.772;39.872;2024-03-07T10:52:13;7.98;59.57
75683;HTU21D;64295;44.772;39.872;2024-03-07T10:55:08;7.98;59.45
75683;HTU21D;64295;44.772;39.872;2024-03-07T10:57:51;7.94;59.48
75683;HTU21D;64295;44.772;39.872;2024-03-07T11:00:26;7.97;59.38
75683;HTU21D;64295;44.772;39.872;2024-03-07T11:02:56;8.00;59.34
75683;HTU21D;64295;44.772;39.872;2024-03-07T11:05:25;8.00;59.28
75683;HTU21D;64295;44.772;39.872;2024-03-07T11:07:57;8.03;59.23
75683;HTU21D;64295;44.772;39.872;2024-03-07T11:10:24;8.05;59.20
75683;HTU21D;64295;44.772;39.872;2024-03-07T11:12:51;8.08;59.19
75683;HTU21D;64295;44.772;39.872;2024-03-07T11:15:18;8.30;58.89
75683;HTU21D;64295;44.772;39.872;2024-03-07T11:17:53;8.27;58.79
75683;HTU21D;64295;44.772;39.872;2024-03-07T11:20:23;8.14;59.03
75683;HTU21D;64295;44.772;39.872;2024-03-07T11:22:50;8.05;59.25
75683;HTU21D;64295;44.772;39.872;2024-03-07T11:25:20;8.12;59.19
75683;HTU21D;64295;44.772;39.872;2024-03-07T11:27:58;8.15;59.14
75683;HTU21D;64295;44.772;39.872;2024-03-07T11:30:25;8.14;59.06
75683;HTU21D;64295;44.772;39.872;2024-03-07T11:32:52;8.12;59.15
75683;HTU21D;64295;44.772;39.872;2024-03-07T11:35:33;8.15;59.11
75683;HTU21D;64295;44.772;39.872;2024-03-07T11:38:06;8.15;59.03
75683;HTU21D;64295;44.772;39.872;2024-03-07T11:43:04;8.02;59.17
75683;HTU21D;64295;44.772;39.872;2024-03-07T11:45:38;8.00;59.25
75683;HTU21D;64295;44.772;39.872;2024-03-07T11:48:18;8.02;59.16
75683;HTU21D;64295;44.772;39.872;2024-03-07T11:50:49;8.00;59.20
75683;HTU21D;64295;44.772;39.872;2024-03-07T11:53:17;8.03;59.12
75683;HTU21D;64295;44.772;39.872;2024-03-07T11:55:43;8.03;59.04
75683;HTU21D;64295;44.772;39.872;2024-03-07T11:58:15;7.98;59.10
75683;HTU21D;64295;44.772;39.872;2024-03-07T12:00:44;7.96;59.19
75683;HTU21D;64295;44.772;39.872;2024-03-07T12:03:18;8.00;59.15
75683;HTU21D;64295;44.772;39.872;2024-03-07T12:05:48;8.05;59.06
75683;HTU21D;64295;44.772;39.872;2024-03-07T12:08:14;8.08;58.96
75683;HTU21D;64295;44.772;39.872;2024-03-07T12:10:42;8.17;58.87
75683;HTU21D;64295;44.772;39.872;2024-03-07T12:13:12;8.16;58.81
75683;HTU21D;64295;44.772;39.872;2024-03-07T12:15:39;8.13;58.86
75683;HTU21D;64295;44.772;39.872;2024-03-07T12:18:06;8.06;58.96
75683;HTU21D;64295;44.772;39.872;2024-03-07T12:20:39;7.96;59.11
75683;HTU21D;64295;44.772;39.872;2024-03-07T12:23:08;7.89;59.28
75683;HTU21D;64295;44.772;39.872;2024-03-07T12:25:37;7.89;59.22
75683;HTU21D;64295;44.772;39.872;2024-03-07T12:28:11;7.87;59.19
75683;HTU21D;64295;44.772;39.872;2024-03-07T12:30:47;7.81;59.29
75683;HTU21D;64295;44.772;39.872;2024-03-07T12:33:16;7.86;59.24
75683;HTU21D;64295;44.772;39.872;2024-03-07T12:35:49;7.86;59.13
75683;HTU21D;64295;44.772;39.872;2024-03-07T12:38:21;7.84;59.14
75683;HTU21D;64295;44.772;39.872;2024-03-07T12:41:09;7.82;59.17
75683;HTU21D;64295;44.772;39.872;2024-03-07T12:43:42;7.73;59.27
75683;HTU21D;64295;44.772;39.872;2024-03-07T12:46:10;7.71;59.25
75683;HTU21D;64295;44.772;39.872;2024-03-07T12:48:40;7.69;59.38
75683;HTU21D;64295;44.772;39.872;2024-03-07T12:51:06;7.83;59.06
75683;HTU21D;64295;44.772;39.872;2024-03-07T12:53:32;7.81;59.09
75683;HTU21D;64295;44.772;39.872;2024-03-07T12:56:00;7.81;59.08
75683;HTU21D;64295;44.772;39.872;2024-03-07T12:58:26;7.74;59.17
75683;HTU21D;64295;44.772;39.872;2024-03-07T13:00:57;7.72;59.22
75683;HTU21D;64295;44.772;39.872;2024-03-07T13:03:24;7.73;59.19
75683;HTU21D;64295;44.772;39.872;2024-03-07T13:05:57;7.69;59.22
75683;HTU21D;64295;44.772;39.872;2024-03-07T13:08:26;7.70;59.22
75683;HTU21D;64295;44.772;39.872;2024-03-07T13:10:55;7.67;59.17
75683;HTU21D;64295;44.772;39.872;2024-03-07T13:13:21;7.63;59.17
75683;HTU21D;64295;44.772;39.872;2024-03-07T13:15:47;7.61;59.19
75683;HTU21D;64295;44.772;39.872;2024-03-07T13:18:13;7.60;59.21
75683;HTU21D;64295;44.772;39.872;2024-03-07T13:20:39;7.59;59.21
75683;HTU21D;64295;44.772;39.872;2024-03-07T13:23:08;7.57;59.23
75683;HTU21D;64295;44.772;39.872;2024-03-07T13:25:35;7.55;59.26
75683;HTU21D;64295;44.772;39.872;2024-03-07T13:28:06;7.58;59.20
75683;HTU21D;64295;44.772;39.872;2024-03-07T13:30:34;7.68;59.17
75683;HTU21D;64295;44.772;39.872;2024-03-07T13:33:02;7.70;58.99
75683;HTU21D;64295;44.772;39.872;2024-03-07T13:35:29;7.62;59.12
75683;HTU21D;64295;44.772;39.872;2024-03-07T13:37:55;7.58;59.24
75683;HTU21D;64295;44.772;39.872;2024-03-07T13:40:26;7.54;59.21
75683;HTU21D;64295;44.772;39.872;2024-03-07T13:42:59;7.43;59.37
75683;HTU21D;64295;44.772;39.872;2024-03-07T13:45:30;7.64;59.32
75683;HTU21D;64295;44.772;39.872;2024-03-07T13:48:06;7.67;59.03
75683;HTU21D;64295;44.772;39.872;2024-03-07T13:50:34;7.54;59.19
75683;HTU21D;64295;44.772;39.872;2024-03-07T13:53:00;7.34;59.51
75683;HTU21D;64295;44.772;39.872;2024-03-07T14:32:39;6.86;59.67
75683;HTU21D;64295;44.772;39.872;2024-03-07T14:37:52;6.61;59.93
75683;HTU21D;64295;44.772;39.872;2024-03-07T14:40:21;6.52;59.96
75683;HTU21D;64295;44.772;39.872;2024-03-07T14:42:48;6.45;59.98
75683;HTU21D;64295;44.772;39.872;2024-03-07T14:45:41;6.42;59.97
75683;HTU21D;64295;44.772;39.872;2024-03-07T14:48:07;6.38;59.96
75683;HTU21D;64295;44.772;39.872;2024-03-07T14:50:39;6.38;59.91
75683;HTU21D;64295;44.772;39.872;2024-03-07T14:53:06;6.42;59.76
75683;HTU21D;64295;44.772;39.872;2024-03-07T14:55:32;6.43;59.72
75683;HTU21D;64295;44.772;39.872;2024-03-07T14:57:59;6.44;59.65
75683;HTU21D;64295;44.772;39.872;2024-03-07T15:00:26;6.44;59.61
75683;HTU21D;64295;44.772;39.872;2024-03-07T15:02:53;6.42;59.61
75683;HTU21D;64295;44.772;39.872;2024-03-07T15:05:23;6.43;59.57
75683;HTU21D;64295;44.772;39.872;2024-03-07T15:07:51;6.45;59.50
75683;HTU21D;64295;44.772;39.872;2024-03-07T15:10:25;6.46;59.40
75683;HTU21D;64295;44.772;39.872;2024-03-07T15:12:52;6.40;59.51
75683;HTU21D;64295;44.772;39.872;2024-03-07T15:15:19;6.37;59.57
75683;HTU21D;64295;44.772;39.872;2024-03-07T15:17:46;6.40;59.50
75683;HTU21D;64295;44.772;39.872;2024-03-07T15:20:12;6.40;59.48
75683;HTU21D;64295;44.772;39.872;2024-03-07T15:22:58;6.38;59.46
75683;HTU21D;64295;44.772;39.872;2024-03-07T15:25:25;6.38;59.48
75683;HTU21D;64295;44.772;39.872;2024-03-07T15:27:52;6.35;59.51
75683;HTU21D;64295;44.772;39.872;2024-03-07T15:30:23;6.28;59.54
75683;HTU21D;64295;44.772;39.872;2024-03-07T15:32:51;6.25;59.64
75683;HTU21D;64295;44.772;39.872;2024-03-07T15:35:17;6.25;59.60
75683;HTU21D;64295;44.772;39.872;2024-03-07T15:37:48;6.22;59.56
75683;HTU21D;64295;44.772;39.872;2024-03-07T15:40:15;6.15;59.62
75683;HTU21D;64295;44.772;39.872;2024-03-07T15:42:43;6.13;59.68
75683;HTU21D;64295;44.772;39.872;2024-03-07T15:45:19;6.12;59.66
75683;HTU21D;64295;44.772;39.872;2024-03-07T15:47:55;6.12;59.65
75683;HTU21D;64295;44.772;39.872;2024-03-07T15:50:24;6.15;59.56
75683;HTU21D;64295;44.772;39.872;2024-03-07T15:52:56;6.19;59.46
75683;HTU21D;64295;44.772;39.872;2024-03-07T15:55:24;6.21;59.43
75683;HTU21D;64295;44.772;39.872;2024-03-07T15:57:54;6.21;59.38
75683;HTU21D;64295;44.772;39.872;2024-03-07T16:00:25;6.19;59.42
75683;HTU21D;64295;44.772;39.872;2024-03-07T16:02:59;6.15;59.44
75683;HTU21D;64295;44.772;39.872;2024-03-07T16:05:29;6.15;59.44